Time;durP1;ratioP1;P1;durP2;ratioP2;P2;SDS_P1;SDS_P2;PMS_P1;PMS_P2;Temp;Humidity;BMP_temperature;BMP_pressure;BME280_temperature;BME280_humidity;BME280_pressure;Samples;Min_cycle;Max_cycle;Signal;HPM_P1;HPM_P2
2024/04/21 00:00:48;;;;;;;2.93;1.33;;;4.20;28.40;;;;;;5369559;26;20227;-72
2024/04/21 00:03:14;;;;;;;2.73;1.43;;;4.20;29.70;;;;;;5369674;26;20269;-70
2024/04/21 00:05:39;;;;;;;3.73;1.50;;;4.10;28.30;;;;;;5369135;26;20318;-70
2024/04/21 00:08:08;;;;;;;2.40;1.33;;;4.20;30.00;;;;;;5369439;26;20367;-70
2024/04/21 00:10:34;;;;;;;1.92;1.13;;;4.10;30.00;;;;;;5405700;26;20254;-71
2024/04/21 00:13:00;;;;;;;2.55;1.48;;;4.20;30.40;;;;;;5405191;26;20235;-70
2024/04/21 00:15:25;;;;;;;3.30;1.27;;;4.30;30.30;;;;;;5368733;26;20228;-70
2024/04/21 00:17:51;;;;;;;2.53;1.63;;;4.20;30.60;;;;;;5369281;26;20335;-71
2024/04/21 00:20:22;;;;;;;2.17;1.10;;;4.20;29.70;;;;;;5369615;26;20231;-71
2024/04/21 00:22:51;;;;;;;2.10;1.40;;;4.20;31.30;;;;;;5369513;26;20235;-73
2024/04/21 00:25:19;;;;;;;7.78;1.83;;;4.20;31.10;;;;;;5405192;26;20247;-71
2024/04/21 00:27:45;;;;;;;2.20;1.43;;;4.20;31.30;;;;;;5369661;26;20234;-71
2024/04/21 00:30:11;;;;;;;2.30;1.33;;;4.30;31.80;;;;;;5369122;26;20504;-71
2024/04/21 00:32:38;;;;;;;2.53;1.53;;;4.20;31.50;;;;;;5369231;26;20226;-71
2024/04/21 00:35:03;;;;;;;2.30;1.57;;;4.30;32.60;;;;;;5368933;26;20453;-70
2024/04/21 00:37:29;;;;;;;1.87;1.00;;;4.30;32.40;;;;;;5368886;26;20519;-71
2024/04/21 00:39:54;;;;;;;2.27;1.00;;;4.30;31.60;;;;;;5369949;26;20228;-73
2024/04/21 00:42:20;;;;;;;2.20;1.20;;;4.30;31.70;;;;;;5370010;26;20237;-71
2024/04/21 00:44:46;;;;;;;2.43;1.37;;;4.30;31.00;;;;;;5406103;26;20783;-71
2024/04/21 00:47:12;;;;;;;2.15;1.02;;;4.30;31.30;;;;;;5405588;26;20405;-72
2024/04/21 00:49:38;;;;;;;2.00;1.10;;;4.30;31.20;;;;;;5406237;26;20570;-71
2024/04/21 00:52:04;;;;;;;2.17;0.87;;;4.30;31.50;;;;;;5406054;26;20274;-71
2024/04/21 00:54:34;;;;;;;2.13;1.10;;;4.40;31.50;;;;;;5370466;26;20231;-70
2024/04/21 00:57:00;;;;;;;2.37;1.10;;;4.40;31.50;;;;;;5369430;26;20233;-71
2024/04/21 00:59:25;;;;;;;1.77;0.87;;;4.30;32.00;;;;;;5405487;26;20517;-71
2024/04/21 01:01:52;;;;;;;2.70;1.20;;;4.30;31.50;;;;;;5369419;26;20462;-71
2024/04/21 01:04:22;;;;;;;2.33;1.10;;;4.30;31.80;;;;;;5368472;26;20257;-71
2024/04/21 01:06:50;;;;;;;3.03;1.27;;;4.30;31.60;;;;;;5369154;26;20521;-70
2024/04/21 01:09:16;;;;;;;2.97;1.42;;;4.30;32.70;;;;;;5368872;26;20225;-71
2024/04/21 01:11:50;;;;;;;2.33;1.20;;;4.20;31.30;;;;;;5405062;26;20562;-70
2024/04/21 01:14:16;;;;;;;5.07;2.05;;;4.20;32.80;;;;;;5368928;26;20368;-70
2024/04/21 01:16:42;;;;;;;2.80;1.57;;;4.20;33.80;;;;;;5369189;26;20281;-71
2024/04/21 01:19:07;;;;;;;3.03;1.43;;;4.30;34.20;;;;;;5404840;26;20279;-70
2024/04/21 01:21:37;;;;;;;1.93;1.03;;;4.20;33.80;;;;;;5368661;26;20273;-72
2024/04/21 01:24:03;;;;;;;1.98;0.85;;;4.20;34.90;;;;;;5368843;26;20226;-71
2024/04/21 01:26:29;;;;;;;3.20;1.27;;;4.20;35.20;;;;;;5368487;26;20303;-71
2024/04/21 01:28:54;;;;;;;2.20;1.40;;;4.20;35.00;;;;;;5368439;26;20274;-71
2024/04/21 01:31:24;;;;;;;2.93;1.40;;;4.10;34.90;;;;;;5368685;26;20223;-71
2024/04/21 01:33:49;;;;;;;1.90;0.90;;;4.10;35.40;;;;;;5404380;26;20318;-71
2024/04/21 01:36:18;;;;;;;2.20;1.30;;;4.10;36.00;;;;;;5404216;26;20239;-71
2024/04/21 01:38:43;;;;;;;4.10;1.33;;;4.10;34.40;;;;;;5368283;26;20600;-72
2024/04/21 01:41:09;;;;;;;3.60;1.10;;;4.00;34.90;;;;;;5368640;26;20235;-70
2024/04/21 01:43:37;;;;;;;3.30;1.27;;;4.00;36.10;;;;;;5368355;26;20220;-70
2024/04/21 01:46:02;;;;;;;4.07;1.40;;;4.00;37.50;;;;;;5423328;21;20301;-70
2024/04/21 01:48:28;;;;;;;1.90;0.90;;;3.90;37.00;;;;;;5383346;26;20457;-72
2024/04/21 01:50:53;;;;;;;2.40;1.40;;;3.90;37.20;;;;;;5414138;26;20307;-70
2024/04/21 01:53:19;;;;;;;2.90;1.40;;;3.90;37.20;;;;;;5414043;26;20221;-71
2024/04/21 01:55:44;;;;;;;1.87;1.07;;;3.80;37.10;;;;;;5413813;26;20222;-71
2024/04/21 01:58:10;;;;;;;2.30;0.90;;;3.80;37.10;;;;;;5414295;26;20717;-72
2024/04/21 02:00:36;;;;;;;2.83;1.20;;;3.80;37.10;;;;;;5414351;26;20288;-71
2024/04/21 02:03:02;;;;;;;2.00;1.10;;;3.80;36.60;;;;;;5414420;26;20326;-71
2024/04/21 02:05:27;;;;;;;2.38;1.40;;;3.70;37.00;;;;;;5382371;26;20233;-71
2024/04/21 02:07:53;;;;;;;3.50;1.97;;;3.70;37.00;;;;;;5413721;26;20296;-71
2024/04/21 02:10:18;;;;;;;2.13;0.80;;;3.60;38.10;;;;;;5382728;26;20350;-71
2024/04/21 02:12:44;;;;;;;2.40;1.60;;;3.60;38.40;;;;;;5382529;26;20269;-71
2024/04/21 02:15:10;;;;;;;2.90;1.50;;;3.50;38.70;;;;;;5413579;26;20319;-70
2024/04/21 02:17:35;;;;;;;2.83;1.93;;;3.50;39.40;;;;;;5385255;26;20242;-71
2024/04/21 02:20:01;;;;;;;2.60;1.50;;;3.50;39.80;;;;;;5417644;26;20227;-71
2024/04/21 02:22:26;;;;;;;2.40;1.97;;;3.70;40.30;;;;;;5386287;26;20251;-71
2024/04/21 02:24:52;;;;;;;2.70;1.60;;;3.60;39.80;;;;;;5386010;26;20723;-71
2024/04/21 02:27:17;;;;;;;2.53;2.00;;;3.60;40.10;;;;;;5385848;26;20572;-71
2024/04/21 02:29:43;;;;;;;2.40;1.23;;;3.60;39.20;;;;;;5386000;26;20586;-72
2024/04/21 02:32:08;;;;;;;4.97;2.27;;;3.60;39.60;;;;;;5417353;26;20556;-72
2024/04/21 02:34:34;;;;;;;2.23;1.53;;;3.60;39.00;;;;;;5385506;26;20261;-71
2024/04/21 02:36:59;;;;;;;5.40;1.80;;;3.60;39.50;;;;;;5416915;26;20234;-71
2024/04/21 02:39:25;;;;;;;3.17;1.80;;;3.70;39.60;;;;;;5385900;26;20234;-70
2024/04/21 02:41:50;;;;;;;3.50;2.10;;;3.70;39.20;;;;;;5422989;26;20277;-71
2024/04/21 02:44:16;;;;;;;2.80;2.17;;;3.80;39.80;;;;;;5435757;26;20218;-71
2024/04/21 02:46:43;;;;;;;2.50;1.83;;;3.90;39.70;;;;;;5435595;26;20237;-72
2024/04/21 02:49:08;;;;;;;3.75;2.40;;;3.80;40.60;;;;;;5405328;26;20660;-71
2024/04/21 02:51:34;;;;;;;3.20;1.90;;;3.90;41.00;;;;;;5405258;26;20230;-71
2024/04/21 02:53:59;;;;;;;3.37;1.80;;;3.90;27.70;;;;;;5403885;26;20257;-71
2024/04/21 02:56:25;;;;;;;2.97;1.73;;;3.90;26.30;;;;;;5401025;26;20278;-71
2024/04/21 02:58:50;;;;;;;3.37;2.17;;;3.90;25.90;;;;;;5422495;26;20226;-70
2024/04/21 03:01:16;;;;;;;3.37;2.33;;;3.90;26.00;;;;;;5420128;26;20590;-70
2024/04/21 03:03:46;;;;;;;4.63;2.40;;;3.90;26.70;;;;;;5386191;26;20712;-71
2024/04/21 03:06:11;;;;;;;3.38;1.80;;;3.90;25.90;;;;;;5416747;26;20245;-71
2024/04/21 03:08:37;;;;;;;3.80;2.40;;;3.90;25.40;;;;;;5385694;26;20602;-71
2024/04/21 03:11:02;;;;;;;2.30;1.30;;;3.90;26.10;;;;;;5385902;26;20554;-71
2024/04/21 03:13:28;;;;;;;3.23;1.90;;;3.90;25.80;;;;;;5385392;26;20702;-71
2024/04/21 03:15:53;;;;;;;2.80;2.00;;;3.80;25.10;;;;;;5416490;26;20335;-69
2024/04/21 03:18:19;;;;;;;5.67;2.80;;;3.80;26.10;;;;;;5385446;26;20728;-69
2024/04/21 03:20:58;;;;;;;5.50;3.00;;;3.80;26.10;;;;;;5416794;26;20336;-71
2024/04/21 03:23:24;;;;;;;4.53;2.20;;;3.80;27.00;;;;;;5385048;26;20233;-71
2024/04/21 03:25:49;;;;;;;2.93;2.10;;;3.90;27.00;;;;;;5416457;26;20456;-71
2024/04/21 03:28:15;;;;;;;4.87;3.03;;;3.90;25.90;;;;;;5385350;26;20950;-71
2024/04/21 03:30:41;;;;;;;3.20;2.50;;;3.90;24.90;;;;;;5416879;26;20236;-70
2024/04/21 03:33:08;;;;;;;7.67;2.97;;;4.00;25.20;;;;;;5384886;26;20234;-70
2024/04/21 03:35:34;;;;;;;4.47;2.80;;;4.00;24.50;;;;;;5384503;26;20273;-71
2024/04/21 03:37:59;;;;;;;7.17;3.60;;;4.00;24.60;;;;;;5384795;26;20245;-72
2024/04/21 03:40:25;;;;;;;6.23;3.93;;;4.10;24.10;;;;;;5416766;26;20220;-71
2024/04/21 03:42:50;;;;;;;4.30;2.93;;;4.10;24.10;;;;;;5416584;26;20222;-70
2024/04/21 03:45:16;;;;;;;5.13;3.67;;;4.20;23.80;;;;;;5384715;26;20239;-70
2024/04/21 03:47:42;;;;;;;5.10;3.37;;;4.20;23.40;;;;;;5416105;26;20671;-71
2024/04/21 03:50:07;;;;;;;7.80;3.57;;;4.20;23.00;;;;;;5416527;26;20730;-70
2024/04/21 03:52:33;;;;;;;6.43;3.70;;;4.30;23.80;;;;;;5416404;26;20222;-71
2024/04/21 03:54:58;;;;;;;4.47;3.57;;;4.30;22.60;;;;;;5415585;26;20226;-71
2024/04/21 03:57:27;;;;;;;4.87;2.93;;;4.30;23.10;;;;;;5416205;26;20342;-71
2024/04/21 03:59:53;;;;;;;5.07;3.10;;;4.40;22.50;;;;;;5384618;26;20612;-70
2024/04/21 04:02:18;;;;;;;4.50;3.00;;;4.40;22.30;;;;;;5415837;26;20633;-70
2024/04/21 04:04:44;;;;;;;4.33;2.93;;;4.50;23.00;;;;;;5415371;26;20223;-71
2024/04/21 04:07:09;;;;;;;3.47;2.20;;;4.50;21.50;;;;;;5415955;26;20808;-70
2024/04/21 04:09:35;;;;;;;4.10;2.70;;;4.50;21.20;;;;;;5355429;26;20277;-71
2024/04/21 04:12:00;;;;;;;3.87;3.07;;;4.50;20.30;;;;;;5384552;26;20242;-71
2024/04/21 04:14:26;;;;;;;5.20;4.17;;;4.50;21.50;;;;;;5415939;26;20249;-70
2024/04/21 04:16:51;;;;;;;4.93;3.20;;;4.50;22.00;;;;;;5415793;26;20227;-71
2024/04/21 04:19:17;;;;;;;4.30;3.40;;;4.40;22.30;;;;;;5415837;26;20654;-71
2024/04/21 04:21:42;;;;;;;3.43;3.03;;;4.50;22.40;;;;;;5416582;26;20231;-70
2024/04/21 04:24:08;;;;;;;6.07;3.00;;;4.50;23.40;;;;;;5415651;26;20268;-71
2024/04/21 04:26:34;;;;;;;4.67;3.37;;;4.40;23.90;;;;;;5384098;26;20347;-71
2024/04/21 04:28:59;;;;;;;3.67;2.93;;;4.40;24.10;;;;;;5384243;26;20752;-70
2024/04/21 04:31:25;;;;;;;5.10;3.13;;;4.40;25.90;;;;;;5384718;26;20260;-70
2024/04/21 04:33:51;;;;;;;4.47;3.63;;;4.40;25.70;;;;;;5415697;26;20271;-71
2024/04/21 04:36:17;;;;;;;3.80;3.38;;;4.30;27.10;;;;;;5384176;26;20241;-71
2024/04/21 04:38:42;;;;;;;6.10;3.17;;;4.10;24.60;;;;;;5383645;26;20316;-71
2024/04/21 04:41:09;;;;;;;4.83;3.07;;;3.90;24.80;;;;;;5415476;26;20226;-71
2024/04/21 04:43:35;;;;;;;3.58;2.60;;;3.70;25.30;;;;;;5384149;26;20231;-71
2024/04/21 04:46:00;;;;;;;4.10;2.60;;;3.50;27.40;;;;;;5415071;26;20336;-72
2024/04/21 04:48:26;;;;;;;3.60;3.03;;;3.40;29.00;;;;;;5383865;26;20312;-72
2024/04/21 04:50:51;;;;;;;3.90;2.13;;;3.40;28.70;;;;;;5384209;26;20256;-72
2024/04/21 04:53:17;;;;;;;4.00;2.10;;;3.30;28.10;;;;;;5415454;26;20224;-72
2024/04/21 04:55:43;;;;;;;6.73;2.10;;;3.30;45.70;;;;;;5414847;26;20219;-72
2024/04/21 04:58:09;;;;;;;6.15;1.60;;;3.20;46.10;;;;;;5384084;26;20231;-72
2024/04/21 05:00:34;;;;;;;2.57;1.70;;;3.20;46.70;;;;;;5415187;26;20251;-72
2024/04/21 05:03:00;;;;;;;5.53;2.13;;;3.10;48.00;;;;;;5383910;26;20570;-71
2024/04/21 05:05:26;;;;;;;2.73;1.20;;;3.10;48.50;;;;;;5415292;26;20223;-72
2024/04/21 05:07:51;;;;;;;3.00;1.97;;;3.10;50.30;;;;;;5396524;26;20315;-71
2024/04/21 05:10:17;;;;;;;4.53;2.40;;;3.10;50.30;;;;;;5398756;26;20232;-71
2024/04/21 05:12:45;;;;;;;4.37;2.30;;;3.10;50.60;;;;;;5398380;26;20233;-71
2024/04/21 05:15:10;;;;;;;3.63;2.40;;;3.00;50.60;;;;;;5431353;26;20224;-72
2024/04/21 05:17:36;;;;;;;2.70;2.20;;;2.90;50.60;;;;;;5387126;26;20275;-71
2024/04/21 05:20:02;;;;;;;4.00;2.40;;;2.90;51.60;;;;;;5417720;26;20220;-71
2024/04/21 05:22:27;;;;;;;4.00;2.70;;;2.80;52.50;;;;;;5384960;26;20219;-71
2024/04/21 05:24:53;;;;;;;4.07;2.17;;;2.70;55.50;;;;;;5416056;26;20330;-71
2024/04/21 05:27:18;;;;;;;3.23;2.20;;;2.70;59.70;;;;;;5383838;26;20244;-71
2024/04/21 05:29:44;;;;;;;3.57;2.10;;;2.70;56.00;;;;;;5415531;26;20261;-70
2024/04/21 05:32:09;;;;;;;2.93;1.97;;;2.60;53.00;;;;;;5383258;26;20256;-71
2024/04/21 05:34:36;;;;;;;4.10;2.13;;;2.60;53.90;;;;;;5414535;26;20272;-70
2024/04/21 05:37:02;;;;;;;5.88;1.60;;;2.50;51.70;;;;;;5414690;26;20241;-71
2024/04/21 05:39:27;;;;;;;2.97;1.87;;;2.70;56.00;;;;;;5414485;26;20267;-71
2024/04/21 05:41:53;;;;;;;5.10;2.13;;;2.70;49.80;;;;;;5414821;26;20224;-71
2024/04/21 05:44:18;;;;;;;4.50;1.47;;;2.70;48.70;;;;;;5382865;26;20259;-72
2024/04/21 05:46:44;;;;;;;3.70;2.40;;;2.70;46.20;;;;;;5414158;26;20579;-72
2024/04/21 05:49:09;;;;;;;2.20;1.33;;;2.60;47.00;;;;;;5414543;26;20704;-71
2024/04/21 05:51:35;;;;;;;2.70;1.27;;;2.70;46.80;;;;;;5384562;26;20260;-71
2024/04/21 05:54:01;;;;;;;2.63;1.63;;;2.60;46.20;;;;;;5418075;26;20334;-70
2024/04/21 05:56:28;;;;;;;4.03;1.80;;;2.60;46.20;;;;;;5386822;26;20519;-71
2024/04/21 05:58:54;;;;;;;2.83;1.83;;;2.70;46.20;;;;;;5418285;26;20237;-71
2024/04/21 06:01:19;;;;;;;3.75;1.90;;;2.70;46.20;;;;;;5417857;26;20245;-72
2024/04/21 06:03:45;;;;;;;2.20;1.60;;;2.70;46.20;;;;;;5386680;26;20592;-71
2024/04/21 06:06:10;;;;;;;3.00;1.53;;;2.80;47.10;;;;;;5386093;26;20241;-70
2024/04/21 06:08:36;;;;;;;3.90;1.60;;;2.80;45.60;;;;;;5417677;26;20277;-71
2024/04/21 06:11:02;;;;;;;3.40;1.57;;;2.80;43.70;;;;;;5417927;26;20224;-72
2024/04/21 06:13:28;;;;;;;2.73;1.80;;;2.60;43.60;;;;;;5419207;26;20226;-72
2024/04/21 06:15:53;;;;;;;3.27;1.73;;;2.60;44.00;;;;;;5417249;26;20273;-72
2024/04/21 06:18:19;;;;;;;8.73;1.90;;;2.50;43.60;;;;;;5418164;26;20500;-71
2024/04/21 06:20:44;;;;;;;2.07;1.33;;;2.30;42.20;;;;;;5386562;26;20230;-72
2024/04/21 06:23:10;;;;;;;2.70;1.53;;;2.30;42.20;;;;;;5417531;26;20263;-70
2024/04/21 06:25:35;;;;;;;2.53;1.27;;;2.30;41.60;;;;;;5417199;26;20596;-70
2024/04/21 06:28:01;;;;;;;3.30;1.80;;;2.30;42.10;;;;;;5385854;26;20348;-71
2024/04/21 06:30:26;;;;;;;2.20;1.20;;;2.20;41.60;;;;;;5386013;26;20247;-71
2024/04/21 06:32:52;;;;;;;4.07;1.60;;;2.20;43.00;;;;;;5417587;26;20229;-71
2024/04/21 06:35:17;;;;;;;2.73;1.43;;;2.30;44.10;;;;;;5385294;26;20312;-70
2024/04/21 06:37:43;;;;;;;2.90;1.63;;;2.40;43.20;;;;;;5417579;26;20345;-70
2024/04/21 06:40:08;;;;;;;3.40;1.63;;;2.40;42.20;;;;;;5385765;26;20231;-71
2024/04/21 06:42:34;;;;;;;3.20;1.90;;;2.40;43.00;;;;;;5417235;26;20241;-71
2024/04/21 06:44:59;;;;;;;3.30;2.40;;;2.40;42.20;;;;;;5416567;26;20225;-71
2024/04/21 06:47:25;;;;;;;8.93;3.87;;;2.60;42.20;;;;;;5385549;26;20316;-71
2024/04/21 06:49:50;;;;;;;2.57;2.03;;;2.70;40.70;;;;;;5385737;26;20233;-71
2024/04/21 06:52:16;;;;;;;3.50;2.20;;;2.80;40.10;;;;;;5417546;26;20224;-71
2024/04/21 06:54:42;;;;;;;5.57;2.80;;;3.00;40.00;;;;;;5418195;26;20220;-70
2024/04/21 06:57:09;;;;;;;4.37;3.57;;;3.10;36.50;;;;;;5417127;26;20252;-70
2024/04/21 06:59:34;;;;;;;3.55;2.50;;;3.00;35.90;;;;;;5385623;26;20235;-70
2024/04/21 07:02:00;;;;;;;4.27;2.40;;;3.10;36.50;;;;;;5416422;26;20643;-71
2024/04/21 07:04:27;;;;;;;4.30;1.83;;;3.10;37.40;;;;;;5416661;26;20685;-70
2024/04/21 07:06:53;;;;;;;8.13;1.55;;;3.10;36.90;;;;;;5417323;26;20237;-71
2024/04/21 07:09:18;;;;;;;3.23;1.83;;;3.20;37.80;;;;;;5417195;26;20305;-70
2024/04/21 07:11:44;;;;;;;5.40;2.70;;;3.20;36.60;;;;;;5385618;26;20228;-70
2024/04/21 07:14:09;;;;;;;4.50;2.47;;;3.40;37.50;;;;;;5416694;26;20283;-71
2024/04/21 07:16:35;;;;;;;2.50;1.73;;;3.40;36.10;;;;;;5416567;26;20271;-72
2024/04/21 07:19:00;;;;;;;3.00;1.97;;;3.30;36.70;;;;;;5416902;26;20234;-71
2024/04/21 07:21:26;;;;;;;4.33;2.90;;;3.40;36.80;;;;;;5417719;26;20319;-72
2024/04/21 07:23:51;;;;;;;4.80;2.77;;;3.60;21.30;;;;;;5417677;26;20226;-72
2024/04/21 07:26:17;;;;;;;3.70;2.70;;;3.80;19.40;;;;;;5416399;26;20233;-71
2024/04/21 07:28:45;;;;;;;5.87;3.63;;;3.80;19.00;;;;;;5416908;26;20221;-70
2024/04/21 07:31:10;;;;;;;4.05;2.88;;;4.00;16.70;;;;;;5417529;26;20238;-71
2024/04/21 07:33:36;;;;;;;4.97;2.80;;;4.30;42.50;;;;;;5385499;26;20254;-72
2024/04/21 07:36:01;;;;;;;3.03;2.20;;;4.50;37.90;;;;;;5384838;26;20312;-71
2024/04/21 07:38:27;;;;;;;3.87;3.00;;;4.90;33.90;;;;;;5416642;26;20229;-71
2024/04/21 07:40:52;;;;;;;3.70;2.50;;;4.80;30.00;;;;;;5385044;26;20732;-72
2024/04/21 07:43:18;;;;;;;4.33;2.77;;;5.10;30.80;;;;;;5385066;26;20233;-72
2024/04/21 07:45:50;;;;;;;5.60;2.90;;;5.20;29.50;;;;;;5384533;26;20252;-72
2024/04/21 07:48:16;;;;;;;6.40;2.90;;;5.30;28.10;;;;;;5416661;26;20457;-72
2024/04/21 07:50:44;;;;;;;4.43;2.63;;;5.50;27.90;;;;;;5384871;26;20509;-72
2024/04/21 07:53:09;;;;;;;5.30;1.90;;;5.20;25.90;;;;;;5416477;26;20451;-72
2024/04/21 07:55:35;;;;;;;2.77;1.90;;;5.20;27.30;;;;;;5384694;26;21007;-72
2024/04/21 07:58:01;;;;;;;4.43;2.50;;;5.30;26.90;;;;;;5384920;26;20246;-72
2024/04/21 08:00:27;;;;;;;6.03;2.37;;;5.10;27.50;;;;;;5416793;26;20234;-72
2024/04/21 08:02:53;;;;;;;5.60;2.23;;;5.20;26.00;;;;;;5416139;26;20454;-72
2024/04/21 08:05:18;;;;;;;4.00;1.90;;;5.30;25.50;;;;;;5384593;26;20328;-72
2024/04/21 08:07:44;;;;;;;3.30;2.10;;;5.30;25.50;;;;;;5416427;26;20235;-72
2024/04/21 08:10:09;;;;;;;6.37;2.90;;;5.10;26.40;;;;;;5416404;26;20557;-72
2024/04/21 08:12:35;;;;;;;4.83;2.70;;;5.00;26.50;;;;;;5432914;26;20212;-71
2024/04/21 08:15:05;;;;;;;3.17;1.70;;;5.10;26.00;;;;;;5426707;26;20231;-71
2024/04/21 08:17:34;;;;;;;6.10;3.13;;;4.80;27.70;;;;;;5428588;26;20281;-71
2024/04/21 08:20:00;;;;;;;4.60;3.30;;;5.00;29.60;;;;;;5428325;26;20508;-72
2024/04/21 08:22:25;;;;;;;6.37;3.53;;;5.10;28.50;;;;;;5424656;26;20521;-72
2024/04/21 08:24:51;;;;;;;6.80;2.50;;;5.20;28.50;;;;;;5416665;26;20597;-71
2024/04/21 08:27:16;;;;;;;3.17;2.30;;;5.30;29.70;;;;;;5416650;26;20780;-72
2024/04/21 08:29:42;;;;;;;5.07;2.43;;;5.40;27.40;;;;;;5416432;26;20223;-72
2024/04/21 08:32:07;;;;;;;7.20;2.53;;;5.60;27.50;;;;;;5415906;26;20219;-72
2024/04/21 08:34:33;;;;;;;9.17;2.80;;;5.80;26.90;;;;;;5415769;26;20223;-72
2024/04/21 08:36:59;;;;;;;4.73;2.93;;;6.30;27.90;;;;;;5416171;26;20235;-72
2024/04/21 08:39:25;;;;;;;4.10;1.80;;;;;;;;;;5354920;26;20546;-72
2024/04/21 08:41:51;;;;;;;5.83;2.43;;;;;;;;;;5383556;26;20227;-71
2024/04/21 08:44:17;;;;;;;5.97;2.53;;;;;;;;;;5415000;26;20446;-70
2024/04/21 08:46:44;;;;;;;8.77;2.37;;;;;;;;;;5383604;26;21052;-71
2024/04/21 08:49:10;;;;;;;3.77;2.40;;;;;;;;;;5414661;26;20446;-71
2024/04/21 08:51:36;;;;;;;6.03;2.03;;;;;;;;;;5383371;26;21080;-71
2024/04/21 08:54:02;;;;;;;4.80;2.60;;;6.90;30.20;;;;;;5414703;26;20861;-71
2024/04/21 08:56:32;;;;;;;7.10;2.97;;;7.00;22.40;;;;;;5414247;26;20462;-71
2024/04/21 08:58:58;;;;;;;3.37;2.20;;;;;;;;;;5415112;26;20504;-71
2024/04/21 09:01:26;;;;;;;5.87;2.73;;;;;;;;;;5415178;26;20848;-71
2024/04/21 09:03:51;;;;;;;3.93;2.43;;;7.60;21.70;;;;;;5415100;26;20495;-71
2024/04/21 09:06:23;;;;;;;7.63;2.37;;;7.90;22.00;;;;;;5414260;26;20861;-71
2024/04/21 09:08:49;;;;;;;5.63;2.53;;;;;;;;;;5414585;26;20846;-75
2024/04/21 09:11:15;;;;;;;4.03;2.53;;;;;;;;;;5383263;26;20455;-71
2024/04/21 09:13:40;;;;;;;3.53;1.60;;;;;;;;;;5414634;26;20454;-71
2024/04/21 09:16:07;;;;;;;4.30;2.37;;;;;;;;;;5414008;26;20609;-71
2024/04/21 09:18:32;;;;;;;5.40;2.30;;;;;;;;;;5414572;26;20502;-71
2024/04/21 09:20:59;;;;;;;5.73;2.03;;;;;;;;;;5414983;26;20446;-71
2024/04/21 09:23:25;;;;;;;5.70;2.60;;;8.20;15.70;;;;;;5414468;26;20550;-71
2024/04/21 09:25:50;;;;;;;7.20;5.17;;;7.80;13.40;;;;;;5415595;26;20494;-71
2024/04/21 09:28:16;;;;;;;3.60;2.30;;;7.80;15.60;;;;;;5418116;26;20505;-70
2024/04/21 09:30:41;;;;;;;4.07;2.50;;;7.80;11.30;;;;;;5390137;26;20260;-70
2024/04/21 09:33:08;;;;;;;3.50;2.53;;;;;;;;;;5419405;26;20270;-72
2024/04/21 09:35:36;;;;;;;2.87;1.90;;;8.30;9.50;;;;;;5422140;26;20561;-71
2024/04/21 09:38:02;;;;;;;5.13;2.40;;;7.70;6.20;;;;;;5419010;26;20516;-70
2024/04/21 09:40:28;;;;;;;4.20;2.30;;;7.80;8.10;;;;;;5417777;26;20824;-71
2024/04/21 09:42:54;;;;;;;3.00;2.03;;;8.10;5.80;;;;;;5417956;26;20478;-71
2024/04/21 09:45:20;;;;;;;5.37;2.33;;;;;;;;;;5417513;26;20564;-71
2024/04/21 09:47:49;;;;;;;3.67;1.97;;;;;;;;;;5417835;26;20243;-70
2024/04/21 09:50:15;;;;;;;5.63;2.90;;;;;;;;;;5386576;26;20456;-71
2024/04/21 09:52:47;;;;;;;3.30;2.43;;;;;;;;;;5386534;26;20492;-71
2024/04/21 09:55:13;;;;;;;3.33;2.90;;;;;;;;;;5386395;26;20456;-70
2024/04/21 09:57:40;;;;;;;3.47;2.60;;;;;;;;;;5417606;26;20460;-71
2024/04/21 10:00:06;;;;;;;6.23;3.30;;;8.80;3.90;;;;;;5386483;26;20555;-71
2024/04/21 10:02:52;;;;;;;5.47;4.20;;;;;;;;;;5390888;26;20942;-72
2024/04/21 10:05:18;;;;;;;3.60;2.77;;;;;;;;;;5435952;26;20547;-70
2024/04/21 10:07:46;;;;;;;4.13;3.10;;;;;;;;;;5436460;26;20453;-71
2024/04/21 10:10:18;;;;;;;5.07;3.60;;;;;;;;;;5436562;26;20509;-70
2024/04/21 10:12:45;;;;;;;4.40;3.20;;;;;;;;;;5400063;26;20995;-71
2024/04/21 10:15:11;;;;;;;4.67;3.27;;;;;;;;;;5419260;26;20679;-71
2024/04/21 10:17:37;;;;;;;6.53;3.07;;;;;;;;;;5422787;26;20464;-71
2024/04/21 10:20:09;;;;;;;5.87;2.67;;;;;;;;;;5418119;26;20467;-70
2024/04/21 10:22:37;;;;;;;5.30;3.03;;;;;;;;;;5421063;26;20793;-70
2024/04/21 10:25:03;;;;;;;3.57;3.27;;;;;;;;;;5418063;26;20499;-70
2024/04/21 10:27:29;;;;;;;4.30;3.40;;;;;;;;;;5418266;26;20524;-71
2024/04/21 10:29:55;;;;;;;3.43;3.03;;;;;;;;;;5420777;26;20899;-70
2024/04/21 10:32:28;;;;;;;5.10;3.27;;;;;;;;;;5418133;26;20540;-71
2024/04/21 10:34:57;;;;;;;5.30;3.37;;;;;;;;;;5417445;26;20504;-71
2024/04/21 10:37:24;;;;;;;3.57;3.00;;;;;;;;;;5385315;26;20457;-70
2024/04/21 10:39:59;;;;;;;3.77;3.47;;;;;;;;;;5418058;26;20456;-71
2024/04/21 10:42:25;;;;;;;3.97;3.57;;;;;;;;;;5417614;26;20444;-71
2024/04/21 10:44:51;;;;;;;5.50;3.83;;;9.30;1.00;;;;;;5417015;26;21035;-71
2024/04/21 10:47:17;;;;;;;5.10;4.60;;;8.70;1.00;;;;;;5385773;26;20467;-70
2024/04/21 10:49:42;;;;;;;8.33;3.60;;;8.40;1.00;;;;;;5417723;26;20501;-70
2024/04/21 10:52:09;;;;;;;4.03;2.70;;;8.10;1.00;;;;;;5417901;26;20295;-72
2024/04/21 10:54:35;;;;;;;5.13;2.80;;;8.20;1.00;;;;;;5416651;26;20230;-72
2024/04/21 10:57:05;;;;;;;4.43;3.80;;;8.40;1.00;;;;;;5417140;26;20463;-73
2024/04/21 10:59:31;;;;;;;3.13;2.83;;;8.40;1.00;;;;;;5386169;26;20502;-72
2024/04/21 11:01:57;;;;;;;7.90;4.17;;;8.60;1.00;;;;;;5417121;26;20501;-72
2024/04/21 11:04:23;;;;;;;5.17;4.03;;;8.70;1.00;;;;;;5416292;26;20456;-72
2024/04/21 11:06:49;;;;;;;4.20;3.60;;;;;;;;;;5417145;26;20713;-71
2024/04/21 11:09:16;;;;;;;6.00;3.73;;;;;;;;;;5385785;26;20254;-71
2024/04/21 11:11:42;;;;;;;5.00;4.50;;;9.30;1.00;;;;;;5417054;26;20449;-71
2024/04/21 11:14:07;;;;;;;4.43;3.83;;;9.30;1.00;;;;;;5417057;26;20575;-71
2024/04/21 11:16:33;;;;;;;5.30;3.70;;;8.90;1.00;;;;;;5416339;26;20335;-72
2024/04/21 11:18:58;;;;;;;4.43;4.10;;;9.10;1.00;;;;;;5416620;26;20320;-72
2024/04/21 11:21:24;;;;;;;4.20;3.90;;;9.80;1.00;;;;;;5416632;26;20302;-72
2024/04/21 11:23:50;;;;;;;4.70;4.30;;;9.50;1.00;;;;;;5385250;26;20706;-71
2024/04/21 11:26:16;;;;;;;4.40;4.00;;;9.70;1.00;;;;;;5416042;26;20457;-71
2024/04/21 11:28:45;;;;;;;5.40;4.10;;;9.70;1.00;;;;;;5384724;26;20320;-71
2024/04/21 11:31:12;;;;;;;4.90;4.50;;;9.40;1.00;;;;;;5416127;26;20505;-71
2024/04/21 11:33:38;;;;;;;3.77;3.47;;;9.40;1.00;;;;;;5416090;26;20448;-72
2024/04/21 11:36:07;;;;;;;5.93;4.23;;;;;;;;;;5415782;26;20860;-72
2024/04/21 11:38:33;;;;;;;6.30;4.97;;;;;;;;;;5416111;26;20454;-72
2024/04/21 11:40:59;;;;;;;6.17;4.00;;;;;;;;;;5416028;26;20449;-71
2024/04/21 11:43:29;;;;;;;6.00;3.80;;;9.70;1.00;;;;;;5384566;26;20461;-72
2024/04/21 11:46:04;;;;;;;7.23;4.77;;;10.20;1.00;;;;;;5415635;26;20451;-71
2024/04/21 11:48:34;;;;;;;4.30;3.90;;;10.60;1.00;;;;;;5416231;26;20496;-71
2024/04/21 11:51:00;;;;;;;4.07;3.80;;;10.10;1.00;;;;;;5384975;26;20468;-73
2024/04/21 11:53:26;;;;;;;4.50;4.30;;;10.40;1.00;;;;;;5415564;26;20502;-71
2024/04/21 11:55:52;;;;;;;5.23;4.83;;;10.60;1.00;;;;;;5384448;26;20453;-72
2024/04/21 11:58:18;;;;;;;4.87;4.57;;;;;;;;;;5415734;26;20219;-71
2024/04/21 12:00:43;;;;;;;4.90;4.50;;;10.60;1.00;;;;;;5384389;26;20266;-72
2024/04/21 12:03:09;;;;;;;5.80;5.30;;;10.70;1.00;;;;;;5415840;26;21097;-72
2024/04/21 12:05:35;;;;;;;6.00;5.50;;;;;;;;;;5384302;26;20258;-72
2024/04/21 12:08:01;;;;;;;5.80;5.40;;;;;;;;;;5415495;26;20473;-71
2024/04/21 12:10:28;;;;;;;5.70;5.20;;;10.30;1.00;;;;;;5416022;26;20449;-72
2024/04/21 12:12:54;;;;;;;5.60;5.20;;;10.10;1.00;;;;;;5415604;26;20549;-71
2024/04/21 12:15:19;;;;;;;6.30;5.90;;;10.50;1.00;;;;;;5415254;26;20449;-71
2024/04/21 12:17:45;;;;;;;5.70;5.20;;;10.80;1.00;;;;;;5415867;26;20465;-72
2024/04/21 12:20:10;;;;;;;4.97;4.57;;;10.30;1.00;;;;;;5415876;26;20297;-72
2024/04/21 12:22:36;;;;;;;4.90;4.60;;;10.30;1.00;;;;;;5415572;26;20335;-70
2024/04/21 12:25:02;;;;;;;6.03;5.63;;;10.70;1.00;;;;;;5415168;26;20232;-73
2024/04/21 12:27:27;;;;;;;6.33;5.73;;;10.80;1.00;;;;;;5384201;26;20312;-71
2024/04/21 12:29:53;;;;;;;5.60;5.20;;;11.10;1.00;;;;;;5415829;26;20223;-72
2024/04/21 12:32:18;;;;;;;8.93;6.10;;;11.10;1.00;;;;;;5384300;26;20223;-73
2024/04/21 12:34:44;;;;;;;6.73;6.23;;;11.10;1.00;;;;;;5415573;26;20224;-72
2024/04/21 12:37:09;;;;;;;6.77;6.20;;;11.50;1.00;;;;;;5415949;26;20339;-72
2024/04/21 12:39:35;;;;;;;5.53;5.23;;;12.10;1.00;;;;;;5415941;26;20579;-71
2024/04/21 12:42:02;;;;;;;6.40;6.00;;;11.60;1.00;;;;;;5415674;26;20630;-72
2024/04/21 12:44:28;;;;;;;5.80;5.30;;;11.20;1.00;;;;;;5415388;26;20446;-72
2024/04/21 12:46:54;;;;;;;6.63;6.03;;;11.20;1.00;;;;;;5415254;26;20862;-70
2024/04/21 12:49:20;;;;;;;4.60;4.20;;;10.90;1.00;;;;;;5384222;26;20446;-72
2024/04/21 12:51:46;;;;;;;5.23;4.73;;;9.70;1.00;;;;;;5415531;26;20242;-71
2024/04/21 12:54:12;;;;;;;3.90;3.50;;;9.00;1.00;;;;;;5384020;26;20465;-70
2024/04/21 12:56:38;;;;;;;2.80;2.60;;;8.60;1.00;;;;;;5415580;26;20292;-71
2024/04/21 12:59:03;;;;;;;3.40;2.80;;;8.30;1.00;;;;;;5415770;26;20995;-71
2024/04/21 13:01:29;;;;;;;4.13;3.10;;;8.10;1.00;;;;;;5383445;26;20239;-70
2024/04/21 13:03:54;;;;;;;3.80;2.80;;;8.20;1.00;;;;;;5416160;26;20342;-71
2024/04/21 13:06:20;;;;;;;3.80;2.43;;;8.40;1.00;;;;;;5415865;26;20240;-71